createdAt,value
2023-05-03T00:03:58.764Z,19
2023-05-03T00:09:51.292Z,19.1
2023-05-03T00:15:42.726Z,18.2
2023-05-03T00:21:34.818Z,20.6
2023-05-03T00:27:27.664Z,18.5
2023-05-03T00:33:19.331Z,17.1
2023-05-03T00:39:10.264Z,15.6
2023-05-03T00:45:01.373Z,15.5
2023-05-03T00:50:50.501Z,18.6
2023-05-03T00:56:56.164Z,15.6
2023-05-03T01:02:47.038Z,18.1
2023-05-03T01:08:39.307Z,18.4
2023-05-03T01:14:31.192Z,17.4
2023-05-03T01:20:22.755Z,16.2
2023-05-03T01:26:14.632Z,18.3
2023-05-03T01:32:06.398Z,16
2023-05-03T01:37:58.285Z,17.8
2023-05-03T01:43:49.847Z,16
2023-05-03T01:49:42.884Z,17.6
2023-05-03T01:55:34.744Z,17.7
2023-05-03T02:01:26.539Z,18.2
2023-05-03T02:07:19.013Z,16.5
2023-05-03T02:13:12.488Z,15.3
2023-05-03T02:19:04.272Z,15.4
2023-05-03T02:24:57.080Z,15.3
2023-05-03T02:30:49.350Z,16.5
2023-05-03T02:36:40.957Z,15.8
2023-05-03T02:42:32.719Z,17.8
2023-05-03T02:48:24.476Z,16.3
2023-05-03T02:54:16.196Z,19.1
2023-05-03T03:00:08.601Z,17
2023-05-03T03:06:02.370Z,20.1
2023-05-03T03:11:52.900Z,17.4
2023-05-03T03:17:44.500Z,20
2023-05-03T03:23:37.783Z,17.5
2023-05-03T03:29:30.029Z,15.2
2023-05-03T03:35:20.608Z,17.4
2023-05-03T03:41:12.248Z,15
2023-05-03T03:47:04.836Z,18.9
2023-05-03T03:52:56.305Z,19.5
2023-05-03T03:58:48.264Z,21.7
2023-05-03T04:04:40.665Z,22.2
2023-05-03T04:10:32.169Z,22.3
2023-05-03T04:16:24.338Z,19.3
2023-05-03T04:22:16.175Z,19.4
2023-05-03T04:28:08.326Z,19.4
2023-05-03T04:34:00.243Z,19.3
2023-05-03T04:39:51.982Z,19
2023-05-03T04:45:44.301Z,19.5
2023-05-03T04:51:36.093Z,20.7
2023-05-03T04:57:28.459Z,27.9
2023-05-03T05:03:20.812Z,23.7
2023-05-03T05:09:13.161Z,21.9
2023-05-03T05:15:06.036Z,29.4
2023-05-03T05:20:58.242Z,24.3
2023-05-03T05:26:50.616Z,25.4
2023-05-03T05:32:43.124Z,23.5
2023-05-03T05:38:35.526Z,24.8
2023-05-03T05:44:29.483Z,23.8
2023-05-03T05:50:27.239Z,25.4
2023-05-03T05:56:17.726Z,26.8
2023-05-03T06:02:48.389Z,26.3
2023-05-03T06:08:43.208Z,26.7
2023-05-03T06:15:15.982Z,25.8
2023-05-03T06:28:04.613Z,22.9
2023-05-03T06:34:39.929Z,23
2023-05-03T07:08:36.535Z,22.5
2023-05-03T07:14:57.426Z,21.3
2023-05-03T07:21:25.293Z,24.8
2023-05-03T07:27:27.532Z,20.6
2023-05-03T07:33:20.304Z,18.8
2023-05-03T07:39:14.722Z,20.4
2023-05-03T07:45:29.603Z,14.9
2023-05-03T07:51:35.770Z,18.6
2023-05-03T07:57:39.177Z,15.8
2023-05-03T08:03:39.390Z,13.8
2023-05-03T08:09:53.414Z,14.2
2023-05-03T08:16:08.369Z,14.5
2023-05-03T08:22:27.777Z,17
2023-05-03T08:28:45.330Z,14.3
2023-05-03T08:34:55.118Z,14.4
2023-05-03T08:40:48.436Z,18.7
2023-05-03T08:46:40.782Z,14
2023-05-03T08:52:35.937Z,13.3
2023-05-03T08:58:28.576Z,16.3
2023-05-03T09:04:24.394Z,15.6
2023-05-03T09:10:22.988Z,11.9
2023-05-03T10:10:23.770Z,13.8
2023-05-03T10:35:40.581Z,13.6
2023-05-03T10:41:48.215Z,14.7
2023-05-03T10:47:42.859Z,11.4
2023-05-03T10:53:49.252Z,13
2023-05-03T11:18:32.950Z,9.8
2023-05-03T11:42:58.200Z,7.6
2023-05-03T11:48:54.219Z,9.1
2023-05-03T11:54:45.546Z,7.8
2023-05-03T12:00:38.537Z,6.6
2023-05-03T12:06:35.895Z,6.9
2023-05-03T12:12:52.824Z,8.3
2023-05-03T12:18:49.626Z,6.9
2023-05-03T12:24:54.015Z,8
2023-05-03T12:30:57.557Z,7.7
2023-05-03T12:36:59.116Z,5.6
2023-05-03T12:43:09.525Z,6.9
2023-05-03T12:49:27.570Z,6.6
2023-05-03T12:55:37.680Z,7.1
2023-05-03T13:09:04.238Z,5.5
2023-05-03T13:15:02.831Z,10.1
2023-05-03T13:38:48.290Z,7
2023-05-03T13:44:41.823Z,5.8
2023-05-03T13:50:43.093Z,6.7
2023-05-03T13:56:38.888Z,6.3
2023-05-03T14:20:18.018Z,4.4
2023-05-03T14:44:23.757Z,4.7
2023-05-03T14:50:16.119Z,5.1
2023-05-03T14:56:09.535Z,5.4
2023-05-03T15:02:03.242Z,6.1
2023-05-03T15:08:06.245Z,4.9
2023-05-03T15:14:00.870Z,5.5
2023-05-03T15:20:10.221Z,5.1
2023-05-03T15:32:04.160Z,6.1
2023-05-03T15:44:21.752Z,6.2
2023-05-03T15:50:16.188Z,3.5
2023-05-03T15:56:11.982Z,5.7
2023-05-03T16:02:04.108Z,5.2
2023-05-03T16:08:00.769Z,5.5
2023-05-03T16:13:56.106Z,5.1
2023-05-03T16:20:06.214Z,4.7
2023-05-03T16:32:20.496Z,4.6
2023-05-03T16:38:12.376Z,4
2023-05-03T16:44:06.730Z,3.3
2023-05-03T16:50:22.117Z,4.2
2023-05-03T17:02:06.058Z,5.1
2023-05-03T17:08:02.313Z,4.5
2023-05-03T17:14:16.589Z,4.2
2023-05-03T17:20:09.494Z,4.3
2023-05-03T17:26:01.544Z,4.4
2023-05-03T17:31:59.678Z,4.5
2023-05-03T17:44:28.062Z,5.1
2023-05-03T17:50:24.260Z,3.8
2023-05-03T17:56:19.679Z,5.3
2023-05-03T18:02:13.446Z,5.5
2023-05-03T18:08:08.414Z,4.2
2023-05-03T18:14:01.717Z,7.2
2023-05-03T18:19:58.366Z,6.1
2023-05-03T18:25:51.565Z,4.5
2023-05-03T18:31:44.068Z,5.2
2023-05-03T18:37:35.314Z,4.2
2023-05-03T18:43:26.344Z,5.1
2023-05-03T18:49:17.330Z,5.3
2023-05-03T18:55:08.871Z,5.2
2023-05-03T19:01:02.921Z,5.7
2023-05-03T19:06:54.940Z,5.4
2023-05-03T19:12:47.922Z,5.8
2023-05-03T19:18:39.529Z,6.3
2023-05-03T19:24:31.442Z,5.3
2023-05-03T19:30:22.848Z,5.6
2023-05-03T19:36:14.768Z,6
2023-05-03T19:42:06.562Z,4.6
2023-05-03T19:47:59.218Z,4.4
2023-05-03T19:53:55.883Z,6.4
2023-05-03T19:59:47.569Z,5.8
2023-05-03T20:05:39.847Z,4.9
2023-05-03T20:11:37.365Z,4.7
2023-05-03T20:17:31.929Z,5.2
2023-05-03T20:23:24.457Z,5.2
2023-05-03T20:29:17.210Z,5.5
2023-05-03T20:35:14.393Z,6.2
2023-05-03T20:41:06.372Z,5.4
2023-05-03T20:46:59.188Z,6.4
2023-05-03T20:53:00.207Z,7.8
2023-05-03T20:58:52.693Z,6.9
2023-05-03T21:04:46.111Z,7.3
2023-05-03T21:10:41.976Z,6.5
2023-05-03T21:16:32.260Z,7.7
2023-05-03T21:41:51.288Z,5.4
2023-05-03T22:06:30.414Z,6.9
2023-05-03T22:24:59.461Z,7.3
2023-05-03T22:30:51.232Z,6.3
2023-05-03T22:36:43.797Z,8.7
2023-05-03T22:56:08.974Z,7.9
2023-05-03T23:02:32.098Z,6.4
2023-05-03T23:40:06.809Z,8
2023-05-03T23:52:06.045Z,5.8
